Time;durP1;ratioP1;P1;durP2;ratioP2;P2;SDS_P1;SDS_P2;PMS_P1;PMS_P2;Temp;Humidity;BMP_temperature;BMP_pressure;BME280_temperature;BME280_humidity;BME280_pressure;Samples;Min_cycle;Max_cycle;Signal;HPM_P1;HPM_P2
2022/09/11 00:00:47;;;;;;;3.25;2.50;;;16.90;99.90;;;;;;5035506;28;20642;-48
2022/09/11 00:03:16;;;;;;;3.07;2.77;;;16.80;99.90;;;;;;5032958;28;20260;-46
2022/09/11 00:05:44;;;;;;;2.93;2.73;;;16.90;99.90;;;;;;5025979;28;20249;-45
2022/09/11 00:08:12;;;;;;;4.10;2.80;;;16.80;99.90;;;;;;5037907;28;20225;-50
2022/09/11 00:10:41;;;;;;;3.22;2.50;;;16.90;99.90;;;;;;5032939;28;20306;-48
2022/09/11 00:13:09;;;;;;;7.13;3.03;;;16.80;99.90;;;;;;5023680;28;20195;-46
2022/09/11 00:15:37;;;;;;;3.05;2.78;;;17.00;99.90;;;;;;5030198;28;20221;-53
2022/09/11 00:18:05;;;;;;;3.30;3.00;;;16.80;99.90;;;;;;5037142;28;20203;-53
2022/09/11 00:20:34;;;;;;;3.77;3.37;;;16.80;99.90;;;;;;5027221;28;20229;-51
2022/09/11 00:23:03;;;;;;;3.23;2.93;;;16.80;99.90;;;;;;5026795;28;20224;-52
2022/09/11 00:25:32;;;;;;;3.28;3.03;;;16.80;99.90;;;;;;5029569;28;20194;-53
2022/09/11 00:27:59;;;;;;;3.08;2.78;;;16.80;99.90;;;;;;5035654;28;20195;-54
2022/09/11 00:30:27;;;;;;;3.70;2.70;;;16.80;99.90;;;;;;5024641;28;20197;-51
2022/09/11 00:32:55;;;;;;;2.70;2.50;;;16.80;99.90;;;;;;5011879;28;20571;-50
2022/09/11 00:35:23;;;;;;;3.50;2.58;;;16.80;99.90;;;;;;5028182;28;20204;-55
2022/09/11 00:37:51;;;;;;;2.55;2.35;;;16.80;99.90;;;;;;5036501;28;20241;-52
2022/09/11 00:40:19;;;;;;;2.58;2.38;;;16.90;99.90;;;;;;5024646;28;20281;-53
2022/09/11 00:42:52;;;;;;;4.53;3.10;;;16.90;99.90;;;;;;5028268;28;20212;-50
2022/09/11 00:45:22;;;;;;;6.13;3.78;;;16.90;99.90;;;;;;5018363;28;20648;-55
2022/09/11 00:47:51;;;;;;;4.20;3.55;;;16.90;99.90;;;;;;5034036;28;20202;-51
2022/09/11 00:50:22;;;;;;;3.42;3.00;;;16.80;99.90;;;;;;5004621;28;20195;-49
2022/09/11 00:52:54;;;;;;;3.05;2.65;;;16.80;99.90;;;;;;5024620;28;20206;-54
2022/09/11 00:55:26;;;;;;;2.30;2.10;;;16.90;99.90;;;;;;5016636;28;20271;-49
2022/09/11 00:57:58;;;;;;;3.30;2.65;;;16.90;99.90;;;;;;5026513;28;20194;-50
2022/09/11 01:00:25;;;;;;;2.65;2.45;;;16.90;99.90;;;;;;5030622;28;20281;-55
2022/09/11 01:02:54;;;;;;;2.72;2.50;;;16.90;99.90;;;;;;5032181;28;20216;-48
2022/09/11 01:05:22;;;;;;;2.65;2.40;;;16.90;99.90;;;;;;5029853;28;20226;-52
2022/09/11 01:07:53;;;;;;;2.70;2.50;;;16.90;99.90;;;;;;5034560;28;20190;-51
2022/09/11 01:10:26;;;;;;;3.15;2.63;;;16.90;99.90;;;;;;5030237;28;20275;-54
2022/09/11 01:13:04;;;;;;;3.58;2.83;;;16.90;99.90;;;;;;5027848;28;20212;-53
2022/09/11 01:15:39;;;;;;;2.50;2.30;;;16.90;99.90;;;;;;5028873;28;20206;-55
2022/09/11 01:18:14;;;;;;;3.67;3.10;;;16.90;99.90;;;;;;5025006;28;20217;-55
2022/09/11 01:21:02;;;;;;;2.95;2.63;;;16.90;99.90;;;;;;5032108;28;20197;-51
2022/09/11 01:23:48;;;;;;;2.83;2.63;;;16.90;99.90;;;;;;5027456;28;20294;-47
2022/09/11 01:26:37;;;;;;;3.55;2.90;;;16.90;99.90;;;;;;5019644;28;20212;-51
2022/09/11 01:29:14;;;;;;;5.07;3.57;;;16.90;99.90;;;;;;5028159;28;20199;-47
2022/09/11 01:31:46;;;;;;;3.60;3.20;;;16.90;99.90;;;;;;5031907;28;20562;-51
2022/09/11 01:34:25;;;;;;;4.18;3.10;;;16.90;99.90;;;;;;5024836;28;20201;-46
2022/09/11 01:37:00;;;;;;;3.83;3.17;;;16.90;99.90;;;;;;5014197;28;20288;-52
2022/09/11 01:39:32;;;;;;;2.90;2.70;;;16.90;99.90;;;;;;5020068;28;20669;-54
2022/09/11 01:42:03;;;;;;;3.47;3.17;;;16.90;99.90;;;;;;5031506;28;20788;-55
2022/09/11 01:44:36;;;;;;;3.70;2.95;;;16.90;99.90;;;;;;5035379;28;20198;-55
2022/09/11 01:47:09;;;;;;;3.03;2.78;;;16.90;99.90;;;;;;5012450;28;20267;-54
2022/09/11 01:49:40;;;;;;;2.70;2.50;;;16.90;99.90;;;;;;5021517;28;20409;-55
2022/09/11 01:52:12;;;;;;;2.78;2.58;;;16.90;99.90;;;;;;5030523;28;20206;-55
2022/09/11 01:54:44;;;;;;;3.22;2.92;;;17.00;99.90;;;;;;5031213;28;20206;-54
2022/09/11 01:57:19;;;;;;;4.55;3.03;;;16.90;99.90;;;;;;5008478;28;20766;-52
2022/09/11 01:59:54;;;;;;;6.00;4.03;;;17.00;99.90;;;;;;5026920;28;20260;-55
2022/09/11 02:02:28;;;;;;;5.57;3.42;;;16.90;99.90;;;;;;5022216;28;20191;-55
2022/09/11 02:05:02;;;;;;;3.35;3.05;;;16.90;99.90;;;;;;5029695;28;20327;-54
2022/09/11 02:07:34;;;;;;;3.00;2.80;;;16.90;99.90;;;;;;5016770;28;20684;-52
2022/09/11 02:10:07;;;;;;;3.20;2.90;;;16.90;99.90;;;;;;5037709;28;20189;-55
2022/09/11 02:12:41;;;;;;;2.97;2.72;;;16.90;99.90;;;;;;5016220;28;20204;-52
2022/09/11 02:15:12;;;;;;;2.83;2.63;;;16.90;99.90;;;;;;5018348;28;20311;-48
2022/09/11 02:17:51;;;;;;;2.03;1.93;;;17.00;99.90;;;;;;5029927;28;20215;-49
2022/09/11 02:20:19;;;;;;;2.55;2.35;;;16.90;99.90;;;;;;5024743;28;20618;-52
2022/09/11 02:22:47;;;;;;;2.50;2.30;;;16.90;99.90;;;;;;5019746;28;20300;-54
2022/09/11 02:25:14;;;;;;;2.40;2.20;;;16.90;99.90;;;;;;5035687;28;20594;-52
2022/09/11 02:27:41;;;;;;;2.80;2.60;;;16.90;99.90;;;;;;5038277;28;20276;-54
2022/09/11 02:30:12;;;;;;;3.22;2.92;;;16.90;99.90;;;;;;5037757;28;20208;-49
2022/09/11 02:32:43;;;;;;;3.15;2.85;;;16.90;99.90;;;;;;5018506;28;20202;-55
2022/09/11 02:35:11;;;;;;;2.90;2.60;;;16.90;99.90;;;;;;5011210;28;20203;-46
2022/09/11 02:37:49;;;;;;;2.90;2.60;;;16.90;99.90;;;;;;5020838;28;20217;-52
2022/09/11 02:40:42;;;;;;;2.60;2.40;;;16.90;99.90;;;;;;5016117;28;20209;-52
2022/09/11 02:43:32;;;;;;;2.83;2.00;;;16.90;99.90;;;;;;5010966;28;20193;-51
2022/09/11 02:46:20;;;;;;;4.13;3.72;;;16.90;99.90;;;;;;5004466;28;20197;-51
2022/09/11 02:48:59;;;;;;;3.80;2.90;;;17.00;99.90;;;;;;5025148;28;20189;-49
2022/09/11 02:51:31;;;;;;;5.43;4.20;;;16.90;99.90;;;;;;5007477;28;20574;-52
2022/09/11 02:54:07;;;;;;;6.15;4.22;;;17.00;99.90;;;;;;5026719;28;20386;-51
2022/09/11 02:56:42;;;;;;;4.72;3.97;;;16.90;99.90;;;;;;5011062;28;20248;-46
2022/09/11 02:59:16;;;;;;;3.47;3.17;;;16.90;99.90;;;;;;5008179;28;20280;-54
2022/09/11 03:01:48;;;;;;;8.73;3.50;;;16.90;99.90;;;;;;5033696;28;20204;-54
2022/09/11 03:04:17;;;;;;;3.13;2.70;;;16.90;99.90;;;;;;5040771;28;20237;-53
2022/09/11 03:06:47;;;;;;;5.25;2.75;;;16.90;99.90;;;;;;5017890;28;20189;-53
2022/09/11 03:09:14;;;;;;;3.03;2.33;;;16.90;99.90;;;;;;5028323;28;20194;-53
2022/09/11 03:11:43;;;;;;;2.57;2.40;;;16.90;99.90;;;;;;5028883;28;20199;-52
2022/09/11 03:14:10;;;;;;;2.83;2.63;;;16.90;99.90;;;;;;5031930;28;20269;-53
2022/09/11 03:16:39;;;;;;;2.83;2.40;;;16.90;99.90;;;;;;5003169;28;20215;-51
2022/09/11 03:19:11;;;;;;;3.00;2.67;;;16.90;99.90;;;;;;5014534;28;20642;-48
2022/09/11 03:21:39;;;;;;;2.63;2.42;;;16.90;99.90;;;;;;5012761;28;20257;-47
2022/09/11 03:24:07;;;;;;;4.13;3.22;;;16.90;99.90;;;;;;5009054;28;20261;-47
2022/09/11 03:26:35;;;;;;;3.22;2.92;;;16.80;99.90;;;;;;5027251;28;20190;-50
2022/09/11 03:29:03;;;;;;;4.13;3.13;;;16.70;99.90;;;;;;5007148;28;20210;-48
2022/09/11 03:31:32;;;;;;;3.73;3.13;;;16.80;99.90;;;;;;5005084;28;20212;-48
2022/09/11 03:33:59;;;;;;;3.30;3.00;;;16.90;99.90;;;;;;5010494;28;20205;-52
2022/09/11 03:36:29;;;;;;;2.80;2.60;;;16.80;99.90;;;;;;5013448;28;20313;-48
2022/09/11 03:38:56;;;;;;;3.50;2.80;;;16.80;99.90;;;;;;5024783;28;20256;-47
2022/09/11 03:41:25;;;;;;;3.00;2.70;;;16.80;99.90;;;;;;5013044;28;20205;-45
2022/09/11 03:43:52;;;;;;;4.10;2.92;;;16.80;99.90;;;;;;5036036;28;20205;-44
2022/09/11 03:46:19;;;;;;;4.93;2.88;;;16.80;99.90;;;;;;5006690;28;20543;-44
2022/09/11 03:48:47;;;;;;;2.75;2.55;;;16.80;99.90;;;;;;5030372;28;20215;-46
2022/09/11 03:51:14;;;;;;;2.60;2.40;;;16.80;99.90;;;;;;5034122;28;20252;-47
2022/09/11 03:53:43;;;;;;;3.07;2.60;;;16.80;99.90;;;;;;5032579;28;20279;-49
2022/09/11 03:56:11;;;;;;;3.25;2.63;;;16.80;99.90;;;;;;5035641;28;20212;-47
2022/09/11 03:58:46;;;;;;;2.53;2.33;;;16.80;99.90;;;;;;5011615;28;20213;-46
2022/09/11 04:01:17;;;;;;;2.38;2.17;;;16.80;99.90;;;;;;5013149;28;20225;-44
2022/09/11 04:03:45;;;;;;;3.50;2.40;;;16.80;99.90;;;;;;5016852;28;20233;-45
2022/09/11 04:06:19;;;;;;;2.45;2.25;;;16.90;99.90;;;;;;5026735;28;20210;-45
2022/09/11 04:08:48;;;;;;;2.22;2.03;;;16.90;99.90;;;;;;5019271;28;20603;-44
2022/09/11 04:11:15;;;;;;;3.63;2.83;;;16.80;99.90;;;;;;5014723;28;20717;-46
2022/09/11 04:13:43;;;;;;;10.18;3.72;;;16.80;99.90;;;;;;5033693;28;20249;-45
2022/09/11 04:16:15;;;;;;;3.87;2.83;;;16.80;99.90;;;;;;5012730;28;20296;-44
2022/09/11 04:18:45;;;;;;;3.07;2.57;;;16.80;99.90;;;;;;5010730;28;20229;-48
2022/09/11 04:21:14;;;;;;;6.40;2.80;;;16.80;99.90;;;;;;5016325;28;20299;-45
2022/09/11 04:23:43;;;;;;;2.60;2.40;;;16.80;99.90;;;;;;5034706;28;20664;-47
2022/09/11 04:26:17;;;;;;;2.63;2.37;;;16.80;99.90;;;;;;5011874;28;20202;-47
2022/09/11 04:28:46;;;;;;;2.57;2.30;;;16.80;99.90;;;;;;5011594;28;20603;-44
2022/09/11 04:31:16;;;;;;;2.40;2.20;;;16.80;99.90;;;;;;5026927;28;20210;-43
2022/09/11 04:33:43;;;;;;;2.60;2.28;;;16.80;99.90;;;;;;5019121;28;20273;-51
2022/09/11 04:36:12;;;;;;;2.25;2.05;;;16.80;99.90;;;;;;5011251;28;20205;-50
2022/09/11 04:38:40;;;;;;;3.00;2.42;;;16.80;99.90;;;;;;5024940;28;20693;-52
2022/09/11 04:41:09;;;;;;;2.08;1.92;;;16.80;99.90;;;;;;5031541;28;20210;-53
2022/09/11 04:43:40;;;;;;;2.10;2.00;;;16.80;99.90;;;;;;5035443;28;20565;-51
2022/09/11 04:46:11;;;;;;;2.90;2.40;;;16.80;99.90;;;;;;5036517;28;20298;-54
2022/09/11 04:48:44;;;;;;;3.60;2.08;;;16.80;99.90;;;;;;5022607;28;20289;-50
2022/09/11 04:51:12;;;;;;;1.80;1.70;;;16.70;99.90;;;;;;5017310;28;20300;-51
2022/09/11 04:53:40;;;;;;;2.22;2.13;;;16.80;99.90;;;;;;5037848;28;20285;-51
2022/09/11 04:56:11;;;;;;;2.50;2.30;;;16.70;99.90;;;;;;5033283;28;20605;-53
2022/09/11 04:58:44;;;;;;;3.17;2.00;;;16.70;99.90;;;;;;5002547;28;20214;-53
2022/09/11 05:01:14;;;;;;;2.58;1.95;;;16.80;99.90;;;;;;5027967;28;20211;-47
2022/09/11 05:03:43;;;;;;;2.23;1.90;;;16.80;99.90;;;;;;5020670;28;20238;-52
2022/09/11 05:06:15;;;;;;;2.60;2.40;;;16.70;99.90;;;;;;5010664;28;20260;-47
2022/09/11 05:08:45;;;;;;;4.33;2.80;;;16.70;99.90;;;;;;5026449;28;20300;-53
2022/09/11 05:11:15;;;;;;;2.17;2.08;;;16.70;99.90;;;;;;5024267;28;20579;-53
2022/09/11 05:13:44;;;;;;;2.80;2.55;;;16.80;99.90;;;;;;5043606;28;20208;-50
2022/09/11 05:16:13;;;;;;;2.10;1.90;;;16.80;99.90;;;;;;5041461;28;20201;-49
2022/09/11 05:18:44;;;;;;;1.80;1.70;;;16.80;99.90;;;;;;5037570;28;20287;-52
2022/09/11 05:21:14;;;;;;;2.35;2.15;;;16.80;99.90;;;;;;5021846;28;20317;-53
2022/09/11 05:23:42;;;;;;;2.60;2.40;;;16.80;99.90;;;;;;5009720;28;20202;-51
2022/09/11 05:26:16;;;;;;;2.30;2.10;;;16.80;99.90;;;;;;5016278;28;20193;-50
2022/09/11 05:28:44;;;;;;;1.53;1.43;;;16.80;99.90;;;;;;5000419;28;20204;-53
2022/09/11 05:31:14;;;;;;;2.03;1.88;;;16.80;99.90;;;;;;5013471;28;20213;-48
2022/09/11 05:33:42;;;;;;;2.20;1.83;;;16.90;99.90;;;;;;5011675;28;20200;-50
2022/09/11 05:36:12;;;;;;;1.60;1.50;;;16.90;99.90;;;;;;5012917;28;20202;-50
2022/09/11 05:38:40;;;;;;;2.30;1.75;;;16.90;99.90;;;;;;5001019;28;20215;-50
2022/09/11 05:41:10;;;;;;;1.70;1.60;;;16.90;99.90;;;;;;5011285;28;20255;-47
2022/09/11 05:43:39;;;;;;;1.88;1.70;;;16.90;99.90;;;;;;5024998;28;20217;-53
2022/09/11 05:46:10;;;;;;;1.52;1.42;;;16.90;99.90;;;;;;5024747;28;20570;-53
2022/09/11 05:48:37;;;;;;;1.88;1.75;;;16.90;99.90;;;;;;5027722;28;20213;-53
2022/09/11 05:51:07;;;;;;;2.70;1.67;;;16.90;99.90;;;;;;5004132;28;20559;-53
2022/09/11 05:53:34;;;;;;;1.83;1.60;;;16.90;99.90;;;;;;5009980;28;20228;-52
2022/09/11 05:56:08;;;;;;;2.63;1.80;;;16.90;99.90;;;;;;5018863;28;20241;-50
2022/09/11 05:58:35;;;;;;;2.10;1.90;;;16.90;99.90;;;;;;5029146;28;20264;-50
2022/09/11 06:01:05;;;;;;;3.63;2.30;;;16.90;99.90;;;;;;5012037;28;20217;-51
2022/09/11 06:03:35;;;;;;;2.15;1.95;;;16.90;99.90;;;;;;5024281;28;20344;-51
2022/09/11 06:06:03;;;;;;;2.10;1.90;;;16.90;99.90;;;;;;5030440;28;20239;-49
2022/09/11 06:08:32;;;;;;;1.98;1.83;;;16.90;99.90;;;;;;5026193;28;20191;-47
2022/09/11 06:11:00;;;;;;;1.88;1.75;;;16.90;99.90;;;;;;5013219;28;20223;-50
2022/09/11 06:13:30;;;;;;;1.77;1.67;;;17.00;99.90;;;;;;5011213;28;20279;-50
2022/09/11 06:16:01;;;;;;;1.55;1.40;;;17.00;99.90;;;;;;5011696;28;20209;-49
2022/09/11 06:18:29;;;;;;;2.78;2.17;;;17.00;99.90;;;;;;5010762;28;20316;-51
2022/09/11 06:20:58;;;;;;;1.60;1.50;;;17.00;99.90;;;;;;5010855;28;20669;-49
2022/09/11 06:23:27;;;;;;;1.88;1.63;;;17.00;99.90;;;;;;5000218;28;20564;-50
2022/09/11 06:26:02;;;;;;;2.17;1.80;;;17.00;99.90;;;;;;5023395;28;20210;-51
2022/09/11 06:28:31;;;;;;;1.53;1.43;;;17.00;99.90;;;;;;5024061;28;20279;-52
2022/09/11 06:31:00;;;;;;;1.67;1.30;;;17.10;99.90;;;;;;5010556;28;20209;-51
2022/09/11 06:33:32;;;;;;;4.20;1.40;;;17.10;99.90;;;;;;5012889;28;20258;-47
2022/09/11 06:36:02;;;;;;;3.42;1.85;;;17.10;99.90;;;;;;5025678;28;20213;-50
2022/09/11 06:38:31;;;;;;;1.70;1.50;;;17.10;99.90;;;;;;5008189;28;20299;-53
2022/09/11 06:41:01;;;;;;;1.60;1.50;;;17.20;99.90;;;;;;5012335;28;20225;-49
2022/09/11 06:43:31;;;;;;;2.40;2.20;;;17.20;99.90;;;;;;5025356;28;20304;-53
2022/09/11 06:46:03;;;;;;;2.78;2.10;;;17.20;99.90;;;;;;5024978;28;20245;-53
2022/09/11 06:48:32;;;;;;;3.63;2.33;;;17.30;99.90;;;;;;5028024;28;20248;-51
2022/09/11 06:51:04;;;;;;;2.13;1.92;;;17.30;99.90;;;;;;5027736;28;20248;-52
2022/09/11 06:53:33;;;;;;;5.90;2.40;;;17.30;99.90;;;;;;5011456;28;20201;-46
2022/09/11 06:56:07;;;;;;;5.27;2.40;;;17.40;99.90;;;;;;5015144;28;20337;-52
2022/09/11 06:58:35;;;;;;;6.43;1.95;;;17.40;99.90;;;;;;5016112;28;20206;-48
2022/09/11 07:01:04;;;;;;;2.03;1.48;;;17.40;99.90;;;;;;5032238;28;20206;-53
2022/09/11 07:03:32;;;;;;;1.48;1.38;;;17.40;99.90;;;;;;5032623;28;20515;-51
2022/09/11 07:06:03;;;;;;;2.35;2.00;;;17.40;99.90;;;;;;5015776;28;20281;-48
2022/09/11 07:08:31;;;;;;;1.30;1.20;;;17.40;99.90;;;;;;5011722;28;20194;-54
2022/09/11 07:11:03;;;;;;;1.67;1.58;;;17.40;99.90;;;;;;5016565;28;20201;-49
2022/09/11 07:13:33;;;;;;;1.90;1.70;;;17.50;99.90;;;;;;5013145;28;20194;-48
2022/09/11 07:16:02;;;;;;;4.25;2.10;;;17.50;99.90;;;;;;5013337;28;20195;-54
2022/09/11 07:18:35;;;;;;;2.67;1.80;;;17.60;99.90;;;;;;5028181;28;20898;-50
2022/09/11 07:21:10;;;;;;;2.37;1.90;;;17.60;99.90;;;;;;5015713;28;20289;-56
2022/09/11 07:23:38;;;;;;;1.40;1.30;;;17.70;99.90;;;;;;5028821;28;20193;-51
2022/09/11 07:26:07;;;;;;;5.18;2.53;;;17.70;99.90;;;;;;5027499;28;20202;-49
2022/09/11 07:28:36;;;;;;;3.45;2.30;;;17.70;99.90;;;;;;5035049;28;20258;-52
2022/09/11 07:31:09;;;;;;;2.65;2.40;;;17.80;99.90;;;;;;5029320;28;20245;-54
2022/09/11 07:33:37;;;;;;;2.10;1.90;;;17.80;99.90;;;;;;5027926;28;20198;-53
2022/09/11 07:36:10;;;;;;;2.58;2.38;;;17.90;99.90;;;;;;5013265;28;20715;-48
2022/09/11 07:38:42;;;;;;;2.42;2.22;;;17.90;99.90;;;;;;5029085;28;20637;-56
2022/09/11 07:41:12;;;;;;;2.45;1.90;;;17.90;99.90;;;;;;5015335;28;20210;-53
2022/09/11 07:43:44;;;;;;;2.95;2.20;;;18.00;99.90;;;;;;5013840;28;20194;-49
2022/09/11 07:46:13;;;;;;;2.60;1.77;;;18.00;99.90;;;;;;5014215;28;20202;-52
2022/09/11 07:48:41;;;;;;;1.30;1.20;;;18.00;99.90;;;;;;5014659;28;20186;-53
2022/09/11 07:51:12;;;;;;;2.88;1.83;;;18.00;99.90;;;;;;5010397;28;20205;-54
2022/09/11 07:53:41;;;;;;;3.47;1.60;;;18.10;99.90;;;;;;5009272;28;20203;-55
2022/09/11 07:56:10;;;;;;;3.20;2.00;;;18.20;99.90;;;;;;5027511;28;20206;-52
2022/09/11 07:58:39;;;;;;;1.67;1.38;;;18.20;99.90;;;;;;5024603;28;20221;-48
2022/09/11 08:01:07;;;;;;;1.30;1.20;;;18.20;99.90;;;;;;5015824;28;20659;-47
2022/09/11 08:03:36;;;;;;;1.70;1.40;;;18.20;99.90;;;;;;5030187;28;20230;-46
2022/09/11 08:06:06;;;;;;;3.50;1.75;;;18.30;99.90;;;;;;5029370;28;20293;-53
2022/09/11 08:08:37;;;;;;;1.83;1.70;;;18.30;99.90;;;;;;5021424;28;20284;-47
2022/09/11 08:11:06;;;;;;;2.78;1.63;;;18.30;99.90;;;;;;5041880;28;20202;-45
2022/09/11 08:13:33;;;;;;;1.70;1.60;;;18.30;99.90;;;;;;5021844;28;20321;-47
2022/09/11 08:16:01;;;;;;;1.58;1.48;;;18.30;99.90;;;;;;5024570;28;20226;-47
2022/09/11 08:18:30;;;;;;;1.42;1.20;;;18.30;99.90;;;;;;5029195;28;20662;-50
2022/09/11 08:21:03;;;;;;;1.38;1.23;;;18.40;99.90;;;;;;5017313;28;20744;-53
2022/09/11 08:23:31;;;;;;;1.70;1.60;;;18.40;99.90;;;;;;5012390;28;20202;-48
2022/09/11 08:26:09;;;;;;;1.55;1.30;;;18.50;99.90;;;;;;5010977;28;20670;-48
2022/09/11 08:28:39;;;;;;;2.25;1.75;;;18.50;99.90;;;;;;5012464;28;20196;-44
2022/09/11 08:31:07;;;;;;;1.33;1.25;;;18.60;99.90;;;;;;5013992;28;20321;-49
2022/09/11 08:33:34;;;;;;;2.22;1.83;;;18.60;99.90;;;;;;5044293;28;20224;-46
2022/09/11 08:36:04;;;;;;;3.83;1.20;;;18.60;99.90;;;;;;5021281;28;20730;-47
2022/09/11 08:38:32;;;;;;;2.60;1.63;;;18.60;99.90;;;;;;5009471;28;20685;-46
2022/09/11 08:41:11;;;;;;;2.80;1.90;;;18.60;99.90;;;;;;5031760;28;20209;-51
2022/09/11 08:43:51;;;;;;;2.28;1.60;;;18.60;99.90;;;;;;5038712;28;20213;-53
2022/09/11 08:46:20;;;;;;;4.55;1.45;;;18.60;99.30;;;;;;5010897;28;20232;-51
2022/09/11 08:48:54;;;;;;;2.47;1.55;;;18.70;99.30;;;;;;5026894;28;20645;-51
2022/09/11 08:51:22;;;;;;;3.53;1.70;;;18.80;98.90;;;;;;5028208;28;20610;-52
2022/09/11 08:53:50;;;;;;;3.28;2.20;;;18.80;98.40;;;;;;5014107;28;20624;-54
2022/09/11 08:56:22;;;;;;;1.77;1.65;;;18.80;98.00;;;;;;5018245;28;20198;-54
2022/09/11 08:59:06;;;;;;;3.20;2.00;;;18.80;97.70;;;;;;5034595;28;20214;-52
2022/09/11 09:01:40;;;;;;;2.25;1.73;;;18.90;97.10;;;;;;5027972;28;20306;-54
2022/09/11 09:04:25;;;;;;;2.05;1.20;;;18.90;97.10;;;;;;5012836;28;20237;-53
2022/09/11 09:07:02;;;;;;;1.80;1.58;;;18.90;96.80;;;;;;5026484;28;20662;-49
2022/09/11 09:09:41;;;;;;;1.92;1.20;;;18.90;96.70;;;;;;5013374;28;20224;-54
2022/09/11 09:12:19;;;;;;;2.08;1.10;;;19.00;96.80;;;;;;5028307;28;20562;-53
2022/09/11 09:15:01;;;;;;;2.80;1.40;;;19.00;96.40;;;;;;5032166;28;20252;-54
2022/09/11 09:17:36;;;;;;;2.15;1.50;;;19.00;95.90;;;;;;5029156;28;20211;-53
2022/09/11 09:20:10;;;;;;;2.95;1.88;;;19.00;95.90;;;;;;5032118;28;20489;-52
2022/09/11 09:22:44;;;;;;;3.20;2.17;;;19.00;95.90;;;;;;5010835;28;20197;-53
2022/09/11 09:25:15;;;;;;;3.95;2.15;;;19.00;95.70;;;;;;5022828;28;20203;-51
2022/09/11 09:27:46;;;;;;;3.05;2.20;;;19.00;95.30;;;;;;5035916;28;20255;-53
2022/09/11 09:30:16;;;;;;;1.83;1.73;;;19.00;94.80;;;;;;5036834;28;20663;-55
2022/09/11 09:32:49;;;;;;;1.60;1.50;;;19.10;94.70;;;;;;5032598;28;20244;-53
2022/09/11 09:35:21;;;;;;;2.22;1.23;;;19.20;94.90;;;;;;5033451;28;20522;-54
2022/09/11 09:37:49;;;;;;;1.77;1.63;;;19.30;94.60;;;;;;5024896;28;20588;-54
2022/09/11 09:40:17;;;;;;;5.15;1.65;;;19.40;94.00;;;;;;5030619;28;20230;-51
2022/09/11 09:43:11;;;;;;;1.33;1.23;;;19.40;93.90;;;;;;5037226;28;20207;-53
2022/09/11 09:45:46;;;;;;;1.90;1.52;;;19.60;94.20;;;;;;5036800;28;20230;-51
2022/09/11 09:48:13;;;;;;;1.60;1.02;;;19.70;94.10;;;;;;5029397;28;20225;-54
2022/09/11 09:50:43;;;;;;;1.77;1.40;;;19.90;94.10;;;;;;5027997;28;20273;-51
2022/09/11 09:53:16;;;;;;;2.67;1.45;;;20.10;94.10;;;;;;5027825;28;20197;-53
2022/09/11 09:55:46;;;;;;;4.13;1.00;;;20.30;94.10;;;;;;5036717;28;20210;-55
2022/09/11 09:58:14;;;;;;;1.67;1.10;;;20.50;94.20;;;;;;5028601;28;20273;-52
2022/09/11 10:00:42;;;;;;;1.42;1.10;;;20.60;93.90;;;;;;5037195;28;20644;-51
2022/09/11 10:03:19;;;;;;;1.00;1.00;;;20.70;94.10;;;;;;5032607;28;20190;-55
2022/09/11 10:05:48;;;;;;;1.63;1.10;;;20.70;93.90;;;;;;5031649;28;20186;-55
2022/09/11 10:08:28;;;;;;;2.40;1.10;;;20.80;93.60;;;;;;5029226;28;20270;-53
2022/09/11 10:10:57;;;;;;;2.10;1.35;;;20.90;93.60;;;;;;5031706;28;20186;-54
2022/09/11 10:13:27;;;;;;;2.45;1.48;;;21.10;93.40;;;;;;5029816;28;20221;-53
2022/09/11 10:15:58;;;;;;;3.13;1.52;;;21.20;93.20;;;;;;5031633;28;20324;-54
2022/09/11 10:18:36;;;;;;;5.68;1.35;;;21.30;92.60;;;;;;5030299;28;20223;-55
2022/09/11 10:21:28;;;;;;;1.00;1.00;;;21.30;92.40;;;;;;5028655;28;20204;-52
2022/09/11 10:23:57;;;;;;;1.00;1.00;;;21.40;92.40;;;;;;5032191;28;20187;-56
2022/09/11 10:26:28;;;;;;;1.45;1.25;;;21.50;92.40;;;;;;5032758;28;20230;-54
2022/09/11 10:29:02;;;;;;;1.17;1.17;;;21.60;92.30;;;;;;5040036;28;20190;-55
2022/09/11 10:31:29;;;;;;;1.38;1.27;;;21.70;91.80;;;;;;5015265;28;20197;-52
2022/09/11 10:33:58;;;;;;;2.70;1.33;;;21.80;91.90;;;;;;5028456;28;20205;-53
2022/09/11 10:36:27;;;;;;;1.88;1.45;;;21.90;91.50;;;;;;5027410;28;20309;-53
2022/09/11 10:38:57;;;;;;;1.60;1.50;;;21.90;91.10;;;;;;5027435;28;20221;-53
2022/09/11 10:41:25;;;;;;;2.30;1.60;;;22.00;91.00;;;;;;5029701;28;20209;-52
2022/09/11 10:43:58;;;;;;;1.23;1.23;;;22.10;90.50;;;;;;5037045;28;20282;-52
2022/09/11 10:46:33;;;;;;;1.80;1.00;;;22.20;90.30;;;;;;5033258;28;20190;-54
2022/09/11 10:49:15;;;;;;;0.85;0.80;;;22.30;90.20;;;;;;5039996;28;20182;-54
2022/09/11 10:51:56;;;;;;;1.27;1.17;;;22.40;89.90;;;;;;5018809;28;20225;-51
2022/09/11 10:54:38;;;;;;;1.38;1.00;;;22.40;88.60;;;;;;5030429;28;20662;-54
2022/09/11 10:57:15;;;;;;;2.70;1.10;;;22.40;87.70;;;;;;5028578;28;20248;-53
2022/09/11 10:59:49;;;;;;;1.52;1.23;;;22.50;86.80;;;;;;5031059;28;20289;-51
2022/09/11 11:02:23;;;;;;;1.10;1.05;;;22.40;86.00;;;;;;5030567;28;20632;-54
2022/09/11 11:04:51;;;;;;;3.15;1.10;;;22.30;85.50;;;;;;5015332;28;20642;-55
2022/09/11 11:07:36;;;;;;;1.15;1.00;;;22.30;85.70;;;;;;5007140;28;20656;-50
2022/09/11 11:10:19;;;;;;;1.25;1.15;;;22.20;85.40;;;;;;5007814;28;20226;-55
2022/09/11 11:13:00;;;;;;;2.47;1.30;;;22.20;85.50;;;;;;5008260;28;20215;-53
2022/09/11 11:15:37;;;;;;;2.55;1.45;;;22.30;85.30;;;;;;5008586;28;20570;-53
2022/09/11 11:18:25;;;;;;;10.07;1.40;;;22.30;83.40;;;;;;5008417;28;20261;-52
2022/09/11 11:21:00;;;;;;;1.02;1.00;;;22.20;82.40;;;;;;5006611;28;20206;-55
2022/09/11 11:23:43;;;;;;;2.03;1.17;;;22.30;82.50;;;;;;5007755;28;20199;-56
2022/09/11 11:26:28;;;;;;;2.95;1.20;;;22.30;82.40;;;;;;5007550;28;20229;-54
2022/09/11 11:29:17;;;;;;;2.97;1.15;;;22.40;80.60;;;;;;5007091;28;20199;-54
2022/09/11 11:32:01;;;;;;;3.40;1.25;;;22.30;79.60;;;;;;5007725;28;20286;-51
2022/09/11 11:34:45;;;;;;;6.30;1.30;;;22.30;79.70;;;;;;5018206;28;20539;-52
2022/09/11 11:37:17;;;;;;;1.80;1.15;;;22.20;78.90;;;;;;5007149;28;20216;-49
2022/09/11 11:39:53;;;;;;;2.83;1.10;;;22.30;79.70;;;;;;5011164;28;20215;-54
2022/09/11 11:42:25;;;;;;;1.65;1.15;;;22.30;78.80;;;;;;5011831;28;20191;-54
2022/09/11 11:44:57;;;;;;;2.45;1.35;;;22.30;78.10;;;;;;5013945;28;20195;-55
2022/09/11 11:47:30;;;;;;;1.88;1.30;;;22.20;77.60;;;;;;5014420;28;20208;-56
2022/09/11 11:50:05;;;;;;;1.67;1.10;;;22.20;77.30;;;;;;5012449;28;20199;-55
2022/09/11 11:52:46;;;;;;;1.33;1.00;;;22.10;77.40;;;;;;5009366;28;20195;-55
2022/09/11 11:55:19;;;;;;;1.75;1.38;;;22.10;77.80;;;;;;5011813;28;20207;-55
2022/09/11 11:57:57;;;;;;;1.30;1.20;;;22.10;77.30;;;;;;5011522;28;20306;-56
2022/09/11 12:00:25;;;;;;;1.17;1.02;;;22.10;76.80;;;;;;5011024;28;20215;-54
2022/09/11 12:02:58;;;;;;;1.20;1.10;;;22.10;76.60;;;;;;5011388;28;20219;-55
2022/09/11 12:05:30;;;;;;;1.25;1.15;;;22.10;76.40;;;;;;5029979;28;20242;-51
2022/09/11 12:07:58;;;;;;;2.33;1.30;;;22.10;76.50;;;;;;5024569;28;20192;-47
2022/09/11 12:10:32;;;;;;;1.00;0.90;;;22.00;76.40;;;;;;5037866;28;21306;-55
2022/09/11 12:13:01;;;;;;;0.85;0.82;;;22.00;77.00;;;;;;5032928;28;20191;-49
2022/09/11 12:15:30;;;;;;;1.00;0.90;;;22.10;78.30;;;;;;5035411;28;20222;-49
2022/09/11 12:18:06;;;;;;;1.00;0.80;;;22.30;77.80;;;;;;5031727;28;20191;-49
2022/09/11 12:20:38;;;;;;;3.60;1.10;;;22.40;77.70;;;;;;5010361;28;20762;-52
2022/09/11 12:23:08;;;;;;;1.13;0.90;;;22.50;77.20;;;;;;5026836;28;20594;-54
2022/09/11 12:26:04;;;;;;;1.25;0.90;;;22.50;77.50;;;;;;5030949;28;20199;-50
2022/09/11 12:28:33;;;;;;;0.75;0.70;;;22.70;77.80;;;;;;5032584;28;20277;-48
2022/09/11 12:31:05;;;;;;;0.85;0.85;;;22.80;77.90;;;;;;5027373;28;20712;-53
2022/09/11 12:33:53;;;;;;;0.70;0.70;;;22.90;78.50;;;;;;5027929;28;20674;-54
2022/09/11 12:36:32;;;;;;;0.88;0.88;;;23.00;77.90;;;;;;5036365;28;20578;-53
2022/09/11 12:39:02;;;;;;;1.20;0.98;;;23.10;77.50;;;;;;5041258;28;20189;-52
2022/09/11 12:41:32;;;;;;;1.23;1.17;;;23.00;75.20;;;;;;5008521;28;20381;-55
2022/09/11 12:44:00;;;;;;;3.75;1.15;;;22.90;75.60;;;;;;5030646;28;20202;-55
2022/09/11 12:47:13;;;;;;;2.45;1.38;;;22.80;75.60;;;;;;5041628;28;20551;-55
2022/09/11 12:49:42;;;;;;;1.02;0.90;;;22.70;75.10;;;;;;5027885;28;20536;-54
2022/09/11 12:52:32;;;;;;;1.33;0.80;;;22.70;74.90;;;;;;5026710;28;20198;-54
2022/09/11 12:55:06;;;;;;;1.02;0.98;;;23.60;75.60;;;;;;5015963;28;20199;-55
2022/09/11 12:57:36;;;;;;;1.05;0.98;;;25.20;73.00;;;;;;5028152;28;20187;-55
2022/09/11 13:00:06;;;;;;;0.88;0.88;;;26.40;69.30;;;;;;5026893;28;20210;-54
2022/09/11 13:02:36;;;;;;;1.85;1.30;;;26.90;67.00;;;;;;5027038;28;20190;-56
2022/09/11 13:05:05;;;;;;;0.95;0.95;;;26.60;65.50;;;;;;5027824;28;20222;-52
2022/09/11 13:07:41;;;;;;;1.25;0.90;;;25.90;65.70;;;;;;5025948;28;20274;-52
2022/09/11 13:10:23;;;;;;;0.90;0.90;;;25.30;67.40;;;;;;5041094;28;20575;-53
2022/09/11 13:12:52;;;;;;;2.00;1.13;;;24.80;68.20;;;;;;5041465;28;20205;-55